Time;durP1;ratioP1;P1;durP2;ratioP2;P2;SDS_P1;SDS_P2;PMS_P1;PMS_P2;Temp;Humidity;BMP_temperature;BMP_pressure;BME280_temperature;BME280_humidity;BME280_pressure;Samples;Min_cycle;Max_cycle;Signal;HPM_P1;HPM_P2
2021/05/04 00:01:02;;;;;;;3.22;2.30;;;21.70;44.60;;;;;;4819716;29;20040;-90
2021/05/04 00:03:28;;;;;;;4.15;3.00;;;21.70;44.70;;;;;;4828870;29;20033;-93
2021/05/04 00:05:54;;;;;;;4.38;3.53;;;21.60;44.70;;;;;;4824004;29;20128;-94
2021/05/04 00:08:20;;;;;;;4.07;3.50;;;21.60;44.90;;;;;;4824080;29;20060;-92
2021/05/04 00:10:47;;;;;;;7.03;3.95;;;21.60;44.80;;;;;;4822521;29;20034;-90
2021/05/04 00:13:13;;;;;;;2.88;2.40;;;21.60;44.70;;;;;;4821986;29;20098;-91
2021/05/04 00:15:39;;;;;;;6.50;4.20;;;21.60;44.70;;;;;;4821379;29;20044;-94
2021/05/04 00:18:05;;;;;;;2.72;1.83;;;21.60;44.70;;;;;;4811249;29;20074;-90
2021/05/04 00:20:32;;;;;;;6.72;4.07;;;21.50;44.50;;;;;;4813941;29;20042;-94
2021/05/04 00:22:58;;;;;;;6.60;4.40;;;21.50;44.50;;;;;;4795303;29;20048;-94
2021/05/04 00:25:24;;;;;;;4.53;2.25;;;21.50;44.40;;;;;;4798310;29;20029;-90
2021/05/04 00:27:50;;;;;;;4.10;2.97;;;21.40;44.30;;;;;;4800800;29;20041;-91
2021/05/04 00:30:17;;;;;;;2.20;2.05;;;21.40;44.50;;;;;;4813886;29;20078;-93
2021/05/04 00:32:43;;;;;;;8.35;3.55;;;21.30;44.60;;;;;;4828571;29;20050;-94
2021/05/04 00:35:10;;;;;;;4.57;3.05;;;21.30;44.90;;;;;;4813105;29;20128;-93
2021/05/04 00:37:36;;;;;;;5.55;4.03;;;21.30;44.80;;;;;;4836746;29;20026;-93
2021/05/04 00:40:03;;;;;;;4.07;3.67;;;21.20;44.80;;;;;;4823386;29;20030;-92
2021/05/04 00:42:30;;;;;;;7.13;4.35;;;21.20;44.80;;;;;;4808475;29;20041;-93
2021/05/04 00:44:56;;;;;;;4.63;3.13;;;21.20;44.80;;;;;;4839193;29;20022;-90
2021/05/04 00:47:22;;;;;;;4.03;3.53;;;21.10;44.60;;;;;;4819995;29;20121;-91
2021/05/04 00:49:49;;;;;;;4.95;2.97;;;21.10;44.60;;;;;;4819329;29;20538;-92
2021/05/04 00:52:15;;;;;;;5.50;3.75;;;21.10;44.50;;;;;;4833855;29;20048;-95
2021/05/04 00:54:41;;;;;;;4.90;3.00;;;21.00;44.50;;;;;;4830057;29;20073;-93
2021/05/04 00:57:12;;;;;;;6.72;4.10;;;21.00;44.40;;;;;;4826777;29;20117;-92
2021/05/04 00:59:39;;;;;;;6.45;3.50;;;21.00;44.40;;;;;;4820806;29;20042;-94
2021/05/04 01:02:05;;;;;;;4.82;2.60;;;21.00;44.30;;;;;;4804638;29;20037;-92
2021/05/04 01:04:31;;;;;;;5.63;3.60;;;21.00;44.30;;;;;;4790438;29;20050;-94
2021/05/04 01:06:58;;;;;;;;;;;21.00;44.20;;;;;;4789691;29;20147;-95
2021/05/04 01:09:24;;;;;;;6.25;3.70;;;21.00;44.20;;;;;;4804254;29;19944;-92
2021/05/04 01:11:50;;;;;;;3.83;2.67;;;21.00;43.90;;;;;;4817300;29;20038;-92
2021/05/04 01:14:16;;;;;;;5.60;3.65;;;21.00;43.70;;;;;;4786849;29;20091;-93
2021/05/04 01:16:49;;;;;;;3.08;2.20;;;21.00;43.30;;;;;;4830118;29;20108;-92
2021/05/04 01:19:16;;;;;;;2.60;2.40;;;21.00;43.20;;;;;;4835212;29;20054;-92
2021/05/04 01:21:43;;;;;;;3.58;2.20;;;21.00;42.90;;;;;;4793962;29;20079;-92
2021/05/04 01:24:10;;;;;;;5.70;2.42;;;21.10;42.90;;;;;;4823230;29;20472;-92
2021/05/04 01:26:36;;;;;;;2.92;2.38;;;21.10;42.70;;;;;;4806362;29;20083;-92
2021/05/04 01:29:03;;;;;;;5.00;3.30;;;21.10;42.60;;;;;;4819412;29;20038;-90
2021/05/04 01:31:30;;;;;;;5.88;2.63;;;21.20;42.20;;;;;;4804924;29;20049;-94
2021/05/04 01:33:57;;;;;;;5.20;3.03;;;21.30;41.90;;;;;;4804868;29;20033;-92
2021/05/04 01:36:23;;;;;;;;;;;21.40;41.80;;;;;;4805588;29;20041;-93
2021/05/04 01:38:49;;;;;;;7.50;3.25;;;21.40;41.50;;;;;;4817500;29;19943;-94
2021/05/04 01:41:15;;;;;;;6.68;2.92;;;21.40;41.00;;;;;;4787518;29;20049;-93
2021/05/04 01:43:42;;;;;;;3.58;2.00;;;21.50;40.60;;;;;;4789278;29;20044;-92
2021/05/04 01:46:08;;;;;;;5.85;2.78;;;21.60;40.30;;;;;;4803466;29;20121;-93
2021/05/04 01:48:35;;;;;;;;;;;21.60;39.90;;;;;;4804019;29;20549;-96
2021/05/04 01:51:01;;;;;;;7.80;3.22;;;21.70;39.60;;;;;;4803897;29;20004;-94
2021/05/04 01:53:27;;;;;;;2.70;1.77;;;21.80;39.00;;;;;;4787262;29;20041;-96
2021/05/04 01:55:54;;;;;;;5.93;2.17;;;21.80;38.80;;;;;;4803018;29;20059;-95
2021/05/04 01:58:20;;;;;;;3.47;2.17;;;21.90;38.40;;;;;;4803970;29;20061;-94
2021/05/04 02:00:46;;;;;;;4.40;2.47;;;22.00;38.10;;;;;;4820573;29;20042;-93
2021/05/04 02:03:13;;;;;;;7.88;2.72;;;22.00;37.50;;;;;;4803010;29;20471;-94
2021/05/04 02:05:39;;;;;;;3.35;2.60;;;22.10;37.30;;;;;;4803438;29;20530;-94
2021/05/04 02:08:06;;;;;;;3.25;2.15;;;22.10;37.00;;;;;;4830806;29;20110;-94
2021/05/04 02:10:32;;;;;;;3.58;2.25;;;22.00;36.50;;;;;;4834579;29;20026;-94
2021/05/04 02:12:58;;;;;;;6.82;2.08;;;22.10;36.50;;;;;;4835747;29;20029;-91
2021/05/04 02:15:25;;;;;;;5.45;2.40;;;22.20;36.40;;;;;;4820948;29;20034;-95
2021/05/04 02:17:51;;;;;;;;;;;22.30;36.00;;;;;;4786930;29;20049;-94
2021/05/04 02:20:17;;;;;;;9.52;3.58;;;22.30;35.80;;;;;;4814783;29;19932;-94
2021/05/04 02:22:43;;;;;;;3.63;2.28;;;22.50;35.60;;;;;;4832431;29;20025;-93
2021/05/04 02:25:11;;;;;;;4.60;1.55;;;22.70;35.60;;;;;;4836771;29;20040;-93
2021/05/04 02:27:37;;;;;;;2.45;1.70;;;22.90;34.60;;;;;;4814167;29;20070;-92
2021/05/04 02:30:04;;;;;;;2.90;1.88;;;23.10;33.80;;;;;;4823285;29;20018;-93
2021/05/04 02:32:34;;;;;;;4.65;2.05;;;23.30;33.00;;;;;;4810760;29;20037;-92
2021/05/04 02:35:02;;;;;;;2.70;2.50;;;23.40;32.60;;;;;;4817555;29;20041;-93
2021/05/04 02:37:31;;;;;;;3.72;2.70;;;23.50;31.80;;;;;;4779880;29;20541;-94
2021/05/04 02:39:57;;;;;;;3.78;1.83;;;23.50;31.70;;;;;;4812091;29;20113;-89
2021/05/04 02:42:25;;;;;;;6.80;3.15;;;23.40;31.50;;;;;;4800650;29;20041;-91
2021/05/04 02:44:51;;;;;;;3.05;2.38;;;23.40;31.60;;;;;;4799624;29;20061;-93
2021/05/04 02:47:17;;;;;;;3.05;1.67;;;23.40;31.50;;;;;;4795063;29;20098;-91
2021/05/04 02:49:43;;;;;;;11.25;2.78;;;23.40;31.40;;;;;;4811110;29;20050;-93
2021/05/04 02:52:10;;;;;;;4.82;2.47;;;23.40;31.50;;;;;;4829468;29;20521;-94
2021/05/04 02:54:36;;;;;;;6.15;1.98;;;23.40;31.80;;;;;;4816621;29;20075;-95
2021/05/04 02:57:04;;;;;;;2.88;1.73;;;23.40;32.00;;;;;;4857985;24;20053;-92
2021/05/04 02:59:31;;;;;;;7.10;3.00;;;23.40;31.90;;;;;;4829068;29;20041;-93
2021/05/04 03:01:57;;;;;;;4.82;2.63;;;23.30;31.90;;;;;;4804530;29;20036;-87
2021/05/04 03:04:23;;;;;;;3.33;1.98;;;23.40;32.10;;;;;;4835248;29;20056;-90
2021/05/04 03:06:50;;;;;;;3.00;1.83;;;23.30;31.80;;;;;;4817360;29;20037;-89
2021/05/04 03:09:16;;;;;;;2.15;1.90;;;23.20;31.90;;;;;;4802660;29;20041;-87
2021/05/04 03:11:43;;;;;;;9.63;3.00;;;23.10;32.00;;;;;;4800669;29;20045;-87
2021/05/04 03:14:09;;;;;;;1.90;1.63;;;23.00;32.20;;;;;;4834279;29;20041;-87
2021/05/04 03:16:35;;;;;;;5.70;2.70;;;23.00;31.90;;;;;;4835380;29;20108;-86
2021/05/04 03:19:01;;;;;;;3.20;1.60;;;22.90;32.00;;;;;;4804492;29;20559;-88
2021/05/04 03:21:29;;;;;;;3.35;2.10;;;22.90;32.00;;;;;;4804150;29;20457;-86
2021/05/04 03:23:55;;;;;;;7.50;2.28;;;22.90;31.60;;;;;;4819286;29;20043;-88
2021/05/04 03:26:21;;;;;;;4.60;2.85;;;22.90;31.60;;;;;;4819813;29;20052;-88
2021/05/04 03:28:47;;;;;;;4.10;1.90;;;23.00;31.80;;;;;;4819100;29;20047;-86
2021/05/04 03:31:13;;;;;;;8.30;2.70;;;23.00;31.20;;;;;;4789188;29;20045;-87
2021/05/04 03:33:40;;;;;;;7.70;2.90;;;23.10;31.10;;;;;;4804787;29;20064;-86
2021/05/04 03:36:06;;;;;;;5.30;2.13;;;23.10;30.90;;;;;;4774790;29;20056;-87
2021/05/04 03:38:33;;;;;;;4.22;1.70;;;23.20;30.80;;;;;;4803673;29;20101;-87
2021/05/04 03:41:00;;;;;;;5.80;2.63;;;23.40;30.40;;;;;;4790008;29;20041;-88
2021/05/04 03:43:26;;;;;;;6.05;2.50;;;23.60;30.30;;;;;;4805969;29;20108;-87
2021/05/04 03:45:52;;;;;;;4.88;2.10;;;23.80;29.60;;;;;;4790406;29;20064;-88
2021/05/04 03:48:19;;;;;;;3.67;2.15;;;24.00;29.00;;;;;;4836692;29;20037;-87
2021/05/04 03:50:47;;;;;;;8.80;2.80;;;24.10;28.80;;;;;;4836864;29;20041;-87
2021/05/04 03:53:13;;;;;;;4.70;2.45;;;24.30;28.80;;;;;;4836910;29;20045;-88
2021/05/04 03:55:39;;;;;;;3.08;2.17;;;24.40;28.50;;;;;;4835867;29;20136;-87
2021/05/04 03:58:05;;;;;;;2.38;1.40;;;24.50;28.10;;;;;;4806248;29;20127;-88
2021/05/04 04:00:32;;;;;;;4.30;2.00;;;24.50;27.90;;;;;;4810933;29;20034;-87
2021/05/04 04:02:58;;;;;;;4.93;2.25;;;24.60;27.60;;;;;;4815032;29;20044;-87
2021/05/04 04:05:24;;;;;;;1.52;1.20;;;24.60;27.40;;;;;;4822578;29;20112;-90
2021/05/04 04:07:50;;;;;;;;;;;24.60;27.30;;;;;;4789152;29;20041;-88
2021/05/04 04:10:16;;;;;;;;;;;24.60;27.00;;;;;;4835186;29;19935;-89
2021/05/04 04:12:42;;;;;;;;;;;24.60;27.10;;;;;;4818283;29;20484;-87
2021/05/04 04:15:10;;;;;;;5.03;2.42;;;24.70;26.80;;;;;;4787981;29;19999;-89
2021/05/04 04:17:36;;;;;;;2.35;2.15;;;24.80;26.90;;;;;;4818958;29;20037;-87
2021/05/04 04:20:04;;;;;;;4.50;2.05;;;25.10;26.20;;;;;;4819974;29;20053;-91
2021/05/04 04:22:30;;;;;;;10.25;3.00;;;25.40;25.60;;;;;;4791716;29;20037;-91
2021/05/04 04:24:56;;;;;;;3.47;1.95;;;25.60;25.50;;;;;;4803432;29;20113;-93
2021/05/04 04:27:23;;;;;;;5.13;2.28;;;25.90;24.70;;;;;;4789251;29;20049;-91
2021/05/04 04:29:49;;;;;;;5.32;2.50;;;26.10;23.90;;;;;;4790750;29;20105;-92
2021/05/04 04:32:16;;;;;;;4.70;1.92;;;26.20;23.60;;;;;;4794636;29;20041;-90
2021/05/04 04:34:42;;;;;;;;;;;26.20;23.60;;;;;;4787906;29;20108;-93
2021/05/04 04:37:08;;;;;;;4.35;2.20;;;26.30;23.20;;;;;;4820132;29;19928;-93
2021/05/04 04:39:34;;;;;;;;;;;26.50;22.60;;;;;;4783898;29;20056;-93
2021/05/04 04:42:00;;;;;;;5.32;1.88;;;26.60;22.00;;;;;;4845114;29;19985;-92
2021/05/04 04:44:27;;;;;;;5.75;2.00;;;26.80;21.50;;;;;;4792588;29;20429;-94
2021/05/04 04:46:53;;;;;;;;;;;26.80;21.20;;;;;;4801897;29;20083;-94
2021/05/04 04:49:20;;;;;;;3.60;2.05;;;26.90;21.10;;;;;;4831250;24;20036;-96
2021/05/04 04:51:48;;;;;;;5.90;2.38;;;27.00;20.70;;;;;;4815109;24;20106;-95
2021/05/04 04:54:14;;;;;;;4.53;2.33;;;27.20;20.80;;;;;;4766292;29;20050;-96
2021/05/04 04:56:41;;;;;;;5.30;1.88;;;27.40;20.60;;;;;;4780918;29;20038;-95
2021/05/04 04:59:08;;;;;;;3.17;1.65;;;27.50;19.40;;;;;;4861617;24;20028;-95
2021/05/04 05:01:34;;;;;;;3.08;1.50;;;27.40;19.40;;;;;;4808578;29;20555;-96
2021/05/04 05:04:03;;;;;;;4.43;2.50;;;27.40;19.30;;;;;;4815484;29;20060;-96
2021/05/04 05:06:29;;;;;;;3.22;1.42;;;27.30;19.50;;;;;;4829927;29;20045;-96
2021/05/04 05:08:55;;;;;;;;;;;27.20;19.10;;;;;;4825539;29;20040;-96
2021/05/04 05:11:23;;;;;;;2.75;1.65;;;27.00;18.90;;;;;;4829717;29;19938;-95
2021/05/04 05:13:54;;;;;;;7.88;3.03;;;26.80;19.10;;;;;;5013900;24;20470;-95
2021/05/04 05:16:22;;;;;;;3.95;1.80;;;26.70;19.10;;;;;;4803350;29;20108;-94
2021/05/04 05:18:49;;;;;;;4.40;1.70;;;26.60;19.10;;;;;;4846883;29;20053;-96
2021/05/04 05:21:16;;;;;;;5.28;2.33;;;26.60;19.10;;;;;;4817793;29;20525;-95
2021/05/04 05:23:43;;;;;;;4.25;1.80;;;26.70;18.90;;;;;;4843278;29;20042;-96
2021/05/04 05:31:36;;;;;;;4.80;1.95;;;27.60;17.60;;;;;;4880048;24;20152;-96
2021/05/04 05:34:19;;;;;;;;;;;;;;;;;;;;;
2021/05/04 05:39:50;;;;;;;4.95;2.53;;;29.70;16.30;;;;;;5525385;24;20053;-96
2021/05/04 05:42:42;;;;;;;4.95;2.40;;;31.20;15.30;;;;;;5008340;24;20054;-96
2021/05/04 05:45:10;;;;;;;5.75;2.13;;;32.60;14.30;;;;;;4813708;29;20056;-96
2021/05/04 05:47:37;;;;;;;5.65;2.50;;;33.60;12.90;;;;;;4820422;29;20125;-95
2021/05/04 05:50:08;;;;;;;1.15;1.05;;;34.20;12.30;;;;;;4940569;24;20069;-95
2021/05/04 05:52:35;;;;;;;2.72;1.30;;;34.50;11.70;;;;;;4821806;29;20061;-95
2021/05/04 05:55:02;;;;;;;7.72;2.00;;;35.00;11.30;;;;;;4818628;29;20102;-94
2021/05/04 05:57:28;;;;;;;2.50;1.33;;;35.30;10.20;;;;;;4802646;29;20046;-96
2021/05/04 05:59:55;;;;;;;2.28;1.60;;;35.30;10.10;;;;;;4814935;29;20129;-96
2021/05/04 06:02:21;;;;;;;3.75;1.80;;;35.30;9.90;;;;;;4831613;29;20040;-95
2021/05/04 06:04:48;;;;;;;7.20;2.47;;;35.10;9.60;;;;;;4813122;29;20042;-95
2021/05/04 06:09:46;;;;;;;4.13;1.90;;;34.30;9.80;;;;;;4825032;29;20053;-96
2021/05/04 06:12:13;;;;;;;4.72;2.33;;;33.50;10.10;;;;;;4943751;24;20182;-96
2021/05/04 06:14:40;;;;;;;5.47;2.63;;;32.80;10.90;;;;;;4836176;29;20038;-96
2021/05/04 06:17:07;;;;;;;6.53;2.97;;;32.30;11.30;;;;;;4819565;29;20018;-96
2021/05/04 06:19:34;;;;;;;6.93;2.80;;;32.00;11.60;;;;;;4852592;24;20033;-96
2021/05/04 06:22:04;;;;;;;7.65;2.58;;;31.90;11.70;;;;;;4995629;24;20049;-96
2021/05/04 06:24:32;;;;;;;3.45;1.95;;;32.20;11.50;;;;;;4830144;24;20065;-96
2021/05/04 06:26:58;;;;;;;12.70;3.30;;;32.60;10.90;;;;;;4791602;29;20065;-95
2021/05/04 06:29:25;;;;;;;2.92;1.80;;;32.90;10.90;;;;;;4790394;30;20088;-96
2021/05/04 06:31:58;;;;;;;7.90;2.55;;;33.40;10.20;;;;;;4775765;30;20118;-96
2021/05/04 06:34:26;;;;;;;6.45;2.22;;;33.90;9.80;;;;;;4779599;29;20034;-96
2021/05/04 06:36:53;;;;;;;6.18;2.42;;;34.10;9.20;;;;;;4782270;30;20068;-96
2021/05/04 06:39:20;;;;;;;5.55;2.10;;;34.30;9.20;;;;;;4767814;30;20042;-94
2021/05/04 06:41:46;;;;;;;9.52;2.35;;;34.70;9.10;;;;;;4788895;30;20049;-95
2021/05/04 06:44:14;;;;;;;4.90;1.88;;;35.20;8.60;;;;;;4778875;30;20034;-95
2021/05/04 06:46:40;;;;;;;10.00;2.85;;;35.80;8.20;;;;;;4785284;29;20043;-95
2021/05/04 06:49:07;;;;;;;3.85;2.28;;;36.00;8.10;;;;;;4804137;29;20060;-95
2021/05/04 06:51:33;;;;;;;4.25;2.10;;;36.30;8.00;;;;;;4787801;30;20042;-96
2021/05/04 06:54:02;;;;;;;12.50;2.65;;;36.50;7.70;;;;;;4772254;30;20039;-93
2021/05/04 06:56:29;;;;;;;5.93;2.50;;;36.20;7.50;;;;;;4785503;30;20153;-95
2021/05/04 06:58:55;;;;;;;12.45;2.45;;;35.70;8.10;;;;;;4788480;30;20046;-95
2021/05/04 07:01:22;;;;;;;8.10;2.33;;;35.60;8.40;;;;;;4773465;30;20130;-95
2021/05/04 07:03:52;;;;;;;8.20;2.85;;;36.00;8.10;;;;;;4797873;29;20030;-93
2021/05/04 07:06:20;;;;;;;5.05;2.50;;;36.20;7.90;;;;;;4780507;29;20138;-96
2021/05/04 07:08:47;;;;;;;3.58;2.10;;;36.50;7.70;;;;;;4770589;29;20039;-95
2021/05/04 07:11:14;;;;;;;3.35;1.83;;;36.80;7.50;;;;;;4784052;29;20046;-95
2021/05/04 07:13:42;;;;;;;2.10;1.73;;;37.30;6.80;;;;;;4797142;30;20160;-93
2021/05/04 07:16:09;;;;;;;5.45;2.10;;;37.30;6.30;;;;;;4787684;30;20045;-94
2021/05/04 07:18:36;;;;;;;5.10;1.60;;;36.90;6.80;;;;;;4803091;29;20041;-96
2021/05/04 07:21:07;;;;;;;10.82;2.20;;;36.90;6.80;;;;;;5015549;24;20061;-95
2021/05/04 07:23:38;;;;;;;3.25;1.63;;;36.90;6.60;;;;;;5005630;24;20090;31
2021/05/04 07:26:10;;;;;;;3.88;2.05;;;36.90;6.90;;;;;;5033398;24;20616;31
2021/05/04 07:28:36;;;;;;;3.95;1.60;;;37.00;6.90;;;;;;4872294;24;20115;-96
2021/05/04 07:31:03;;;;;;;8.57;2.38;;;37.00;6.20;;;;;;4835077;29;20044;-94
2021/05/04 07:33:29;;;;;;;7.22;2.40;;;36.80;6.90;;;;;;4834462;29;20037;-96
2021/05/04 07:35:58;;;;;;;5.80;2.30;;;37.40;6.60;;;;;;4886990;24;20040;-95
2021/05/04 07:38:27;;;;;;;4.30;2.25;;;37.90;6.10;;;;;;4820764;29;20125;-95
2021/05/04 07:40:54;;;;;;;2.63;1.75;;;38.50;5.70;;;;;;4805594;29;20548;-96
2021/05/04 07:43:22;;;;;;;2.40;1.55;;;38.60;6.50;;;;;;4817951;29;20056;-96
2021/05/04 07:45:49;;;;;;;6.93;2.30;;;38.80;5.30;;;;;;4846746;29;20104;-94
2021/05/04 07:48:17;;;;;;;3.95;2.03;;;38.90;5.40;;;;;;4851443;29;20041;-95
2021/05/04 07:53:15;;;;;;;7.63;2.55;;;39.00;5.30;;;;;;4819233;29;20106;-96
2021/05/04 07:55:43;;;;;;;9.85;2.80;;;39.20;5.00;;;;;;4951259;24;20031;-93
2021/05/04 07:58:10;;;;;;;4.43;1.73;;;39.40;5.30;;;;;;4838539;29;20048;-95
2021/05/04 08:00:37;;;;;;;9.40;2.30;;;39.90;4.70;;;;;;4835549;29;20045;-96
2021/05/04 08:03:03;;;;;;;8.30;2.25;;;40.00;4.70;;;;;;4819375;29;20030;-96
2021/05/04 08:05:30;;;;;;;7.32;2.28;;;40.00;4.40;;;;;;4815630;29;20057;-93
2021/05/04 08:07:56;;;;;;;13.20;2.70;;;39.40;4.20;;;;;;4805615;29;20032;-95
2021/05/04 08:10:23;;;;;;;6.22;1.90;;;38.40;4.90;;;;;;4837456;29;20093;-95
2021/05/04 08:12:51;;;;;;;5.57;2.05;;;37.80;5.30;;;;;;4837000;29;20086;-94
2021/05/04 08:15:19;;;;;;;7.00;2.25;;;37.40;5.20;;;;;;4821751;29;20203;-94
2021/05/04 08:17:55;;;;;;;3.05;1.77;;;37.00;6.50;;;;;;4818826;29;20421;-95
2021/05/04 08:20:22;;;;;;;10.75;2.65;;;36.60;5.50;;;;;;4821304;29;20034;-95
2021/05/04 08:22:48;;;;;;;5.40;1.67;;;36.80;6.00;;;;;;4834598;29;20108;-93
2021/05/04 08:25:16;;;;;;;5.85;1.40;;;37.70;5.70;;;;;;4834112;29;20082;-95
2021/05/04 08:27:43;;;;;;;6.57;2.10;;;38.40;4.80;;;;;;4816092;29;20042;-96
2021/05/04 08:30:10;;;;;;;12.13;2.60;;;38.30;4.70;;;;;;4812834;29;20521;-94
2021/05/04 08:32:37;;;;;;;1.58;1.25;;;38.70;4.70;;;;;;4869516;24;20045;-95
2021/05/04 08:35:04;;;;;;;8.95;2.05;;;38.90;4.20;;;;;;4837132;29;20036;-95
2021/05/04 08:37:31;;;;;;;5.97;1.80;;;38.40;4.50;;;;;;4846267;24;20090;-94
2021/05/04 08:39:58;;;;;;;4.85;1.52;;;38.00;4.80;;;;;;4807632;29;20152;-95
2021/05/04 08:42:25;;;;;;;7.80;2.60;;;38.30;4.80;;;;;;4920556;24;20031;-96
2021/05/04 08:44:52;;;;;;;9.13;1.95;;;38.60;4.70;;;;;;4804125;24;20037;-95
2021/05/04 08:47:21;;;;;;;14.13;2.50;;;39.30;4.40;;;;;;4852980;24;20045;-95
2021/05/04 08:49:48;;;;;;;13.18;2.47;;;39.60;4.30;;;;;;4840800;29;20045;-95
2021/05/04 08:52:18;;;;;;;7.30;2.40;;;39.90;4.20;;;;;;4809690;29;20077;-94
2021/05/04 08:54:45;;;;;;;3.28;1.60;;;40.20;3.70;;;;;;4824689;29;20045;-95
2021/05/04 08:57:12;;;;;;;4.28;1.40;;;40.20;3.80;;;;;;4823770;29;20059;-94
2021/05/04 08:59:38;;;;;;;7.13;2.13;;;40.00;3.90;;;;;;4840641;29;20021;-94
2021/05/04 09:05:18;;;;;;;15.95;2.45;;;39.80;4.50;;;;;;5056102;24;20361;-93
2021/05/04 09:07:46;;;;;;;5.95;2.05;;;39.60;4.80;;;;;;5001992;24;20037;-94
2021/05/04 09:13:07;;;;;;;9.63;1.88;;;37.70;5.70;;;;;;4884417;24;20023;-95
2021/05/04 09:21:42;;;;;;;5.05;1.88;;;35.80;7.10;;;;;;5185434;24;20107;-94
2021/05/04 09:24:39;;;;;;;6.93;1.98;;;35.70;7.20;;;;;;4881862;24;20057;-92
2021/05/04 09:27:10;;;;;;;8.65;2.33;;;35.80;7.20;;;;;;4819890;29;20050;-93
2021/05/04 09:29:45;;;;;;;8.93;1.98;;;36.00;7.20;;;;;;4832702;29;20091;-93
2021/05/04 09:32:18;;;;;;;8.65;2.20;;;35.90;6.90;;;;;;4817250;29;20037;-92
2021/05/04 09:34:53;;;;;;;3.33;1.95;;;36.30;8.10;;;;;;4886813;24;20977;-94
2021/05/04 09:37:26;;;;;;;6.80;2.22;;;36.90;6.40;;;;;;4866626;24;20049;-94
2021/05/04 09:40:26;;;;;;;9.90;2.50;;;36.90;6.10;;;;;;5137863;24;20043;31
2021/05/04 09:43:14;;;;;;;3.05;1.55;;;36.50;6.40;;;;;;4785619;29;20130;-95
2021/05/04 09:45:53;;;;;;;5.65;2.03;;;36.20;6.30;;;;;;4759903;29;20074;-94
2021/05/04 09:48:34;;;;;;;8.52;2.13;;;36.00;6.70;;;;;;4898473;24;20052;-94
2021/05/04 09:51:12;;;;;;;11.52;2.20;;;35.70;6.50;;;;;;4881878;24;20041;-91
2021/05/04 09:53:47;;;;;;;12.52;2.83;;;35.00;6.80;;;;;;4807264;29;20070;-96
2021/05/04 09:56:18;;;;;;;4.18;1.88;;;34.30;7.10;;;;;;4791193;29;20041;-94
2021/05/04 09:58:46;;;;;;;7.55;2.13;;;33.60;7.50;;;;;;4776461;29;20086;-94
2021/05/04 10:01:18;;;;;;;10.75;2.10;;;33.10;8.00;;;;;;4882436;24;20029;-92
2021/05/04 10:03:46;;;;;;;11.33;2.30;;;32.70;8.30;;;;;;4891265;24;21071;-90
2021/05/04 10:06:15;;;;;;;10.88;2.33;;;32.40;8.40;;;;;;4835570;29;20052;-95
2021/05/04 10:08:42;;;;;;;12.85;2.40;;;32.10;8.60;;;;;;4855278;24;20058;-91
2021/05/04 10:11:14;;;;;;;6.38;2.00;;;31.80;8.70;;;;;;4931028;24;20062;-91
2021/05/04 10:13:42;;;;;;;4.35;2.00;;;31.60;9.10;;;;;;4796295;29;20156;-90
2021/05/04 10:16:10;;;;;;;2.92;1.35;;;31.50;9.00;;;;;;4776964;29;20038;-92
2021/05/04 10:18:37;;;;;;;11.60;2.55;;;31.50;9.20;;;;;;4806749;29;20050;-91
2021/05/04 10:21:06;;;;;;;4.10;1.70;;;31.60;9.30;;;;;;4781138;29;20082;-92
2021/05/04 10:23:34;;;;;;;8.52;2.30;;;31.50;9.10;;;;;;4793524;29;20048;-92
2021/05/04 10:26:06;;;;;;;8.23;1.70;;;31.40;9.30;;;;;;4779101;29;20052;-92
2021/05/04 10:28:36;;;;;;;12.40;2.97;;;31.30;9.40;;;;;;4765694;29;20068;-92
2021/05/04 10:31:05;;;;;;;7.65;3.00;;;31.10;9.30;;;;;;4785958;29;20180;-93
2021/05/04 10:33:39;;;;;;;6.57;2.83;;;31.10;9.50;;;;;;4777199;29;20045;-92
2021/05/04 10:36:05;;;;;;;11.43;3.40;;;31.10;9.70;;;;;;4791942;29;20060;-92
2021/05/04 10:38:52;;;;;;;10.05;2.88;;;31.30;9.70;;;;;;4795266;29;20034;-92
2021/05/04 10:41:19;;;;;;;7.93;2.65;;;31.30;9.70;;;;;;4791295;29;20065;-89
2021/05/04 10:43:48;;;;;;;12.75;2.78;;;31.40;9.70;;;;;;4809264;29;20041;-90
2021/05/04 10:46:34;;;;;;;9.85;2.40;;;31.40;9.90;;;;;;4765074;29;20045;-91
2021/05/04 10:49:01;;;;;;;9.73;3.08;;;31.30;9.90;;;;;;4802453;29;20056;-90
2021/05/04 10:51:51;;;;;;;11.93;2.75;;;31.10;10.10;;;;;;4780816;29;20112;-92
2021/05/04 10:54:21;;;;;;;20.13;3.38;;;31.00;10.00;;;;;;4800718;29;20057;-90
2021/05/04 10:56:58;;;;;;;9.20;2.80;;;30.90;9.90;;;;;;4820905;29;20124;-91
2021/05/04 10:59:25;;;;;;;10.73;2.53;;;30.70;9.80;;;;;;4799827;29;20045;-91
2021/05/04 11:02:10;;;;;;;;;;;30.70;10.00;;;;;;4819525;29;20153;-89
2021/05/04 11:04:41;;;;;;;9.95;2.42;;;30.50;9.90;;;;;;4834351;29;19928;-91
2021/05/04 11:07:08;;;;;;;8.18;2.45;;;30.30;10.00;;;;;;4795857;29;20125;-90
2021/05/04 11:09:39;;;;;;;6.00;1.90;;;30.10;10.30;;;;;;4798760;29;20034;-91
2021/05/04 11:12:06;;;;;;;7.63;2.83;;;29.90;10.20;;;;;;4799834;29;20046;-94
2021/05/04 11:14:39;;;;;;;10.07;2.97;;;29.60;10.40;;;;;;4813071;29;20160;-93
2021/05/04 11:17:10;;;;;;;11.75;2.70;;;29.50;10.70;;;;;;4814849;29;20112;-91
2021/05/04 11:19:42;;;;;;;7.47;3.75;;;29.30;10.70;;;;;;4812899;29;20048;-93
2021/05/04 11:22:19;;;;;;;8.25;3.00;;;29.10;10.80;;;;;;4811035;29;20124;-90
2021/05/04 11:24:51;;;;;;;7.32;2.45;;;29.00;10.90;;;;;;4774470;29;20050;-93
2021/05/04 11:27:22;;;;;;;10.60;3.00;;;28.80;11.00;;;;;;4770350;29;20066;-93
2021/05/04 11:29:51;;;;;;;6.13;2.28;;;28.70;11.20;;;;;;4785145;29;20072;-92
2021/05/04 11:32:44;;;;;;;7.13;2.25;;;28.60;11.30;;;;;;4859234;24;20041;-93
2021/05/04 11:35:12;;;;;;;10.73;2.88;;;28.50;11.50;;;;;;4820596;29;20050;-93
2021/05/04 11:37:43;;;;;;;11.43;3.13;;;28.40;11.40;;;;;;4803444;29;20056;-93
2021/05/04 11:40:21;;;;;;;10.55;2.50;;;28.30;11.40;;;;;;4822517;29;20042;-94
2021/05/04 11:43:00;;;;;;;9.20;3.20;;;28.20;11.40;;;;;;4808886;29;20041;-94
2021/05/04 11:45:32;;;;;;;4.75;2.50;;;28.20;11.40;;;;;;4806188;29;20104;-95
2021/05/04 11:48:04;;;;;;;5.50;2.42;;;28.10;11.50;;;;;;4801676;29;20105;-95
2021/05/04 11:50:42;;;;;;;11.45;2.88;;;28.10;11.70;;;;;;4798467;29;20056;-94
2021/05/04 11:53:17;;;;;;;5.88;2.47;;;28.10;11.80;;;;;;4780474;29;20048;-95
2021/05/04 11:55:45;;;;;;;8.77;2.67;;;28.10;11.90;;;;;;4796609;29;20062;-94
2021/05/04 11:58:20;;;;;;;36.65;5.30;;;27.90;12.10;;;;;;4808017;29;20045;-96
2021/05/04 12:00:47;;;;;;;5.05;2.13;;;27.90;12.20;;;;;;4798608;29;20048;-95
2021/05/04 12:03:16;;;;;;;5.88;2.28;;;27.80;12.20;;;;;;4810816;29;20060;-94
2021/05/04 12:05:45;;;;;;;4.00;2.03;;;27.80;12.20;;;;;;4781346;29;20050;-92
2021/05/04 12:08:13;;;;;;;9.45;2.15;;;27.70;12.00;;;;;;4783644;29;20827;-93
2021/05/04 12:10:49;;;;;;;6.60;2.65;;;27.60;12.00;;;;;;4814315;29;20044;-93
2021/05/04 12:13:22;;;;;;;4.22;2.20;;;27.60;12.00;;;;;;4805453;29;20033;-94
2021/05/04 12:15:53;;;;;;;6.70;2.15;;;27.70;12.00;;;;;;4803822;29;20045;-93
2021/05/04 12:18:29;;;;;;;10.55;3.25;;;27.70;11.90;;;;;;4778794;29;20045;-93
2021/05/04 12:21:00;;;;;;;7.57;2.40;;;27.80;12.00;;;;;;4779602;29;20042;-95
2021/05/04 12:23:34;;;;;;;5.93;2.33;;;27.80;12.00;;;;;;4813995;29;20038;-94
2021/05/04 12:26:09;;;;;;;4.50;1.90;;;27.90;11.90;;;;;;4794252;29;20052;-95
2021/05/04 12:28:47;;;;;;;;;;;27.90;11.80;;;;;;4809310;29;20042;-95
2021/05/04 12:31:32;;;;;;;3.95;1.60;;;27.90;11.90;;;;;;4769610;29;20015;-91
2021/05/04 12:33:58;;;;;;;11.68;2.53;;;27.90;11.60;;;;;;4811912;29;20053;-91
2021/05/04 12:36:51;;;;;;;12.52;2.80;;;27.90;11.50;;;;;;4812023;29;20053;-92
2021/05/04 12:39:32;;;;;;;9.45;3.03;;;27.90;11.50;;;;;;4811206;29;20124;-93
2021/05/04 12:42:02;;;;;;;10.85;3.08;;;27.90;11.40;;;;;;4784046;29;20042;-93
2021/05/04 12:44:33;;;;;;;6.32;1.92;;;27.80;11.40;;;;;;4800484;29;20061;-93
2021/05/04 12:47:06;;;;;;;7.72;2.67;;;27.90;11.40;;;;;;4814119;29;20038;-95
2021/05/04 12:49:37;;;;;;;7.07;2.63;;;27.80;11.40;;;;;;4769545;29;20031;-94
2021/05/04 12:52:12;;;;;;;7.68;2.05;;;27.90;11.50;;;;;;4768576;29;20115;-92
2021/05/04 12:54:40;;;;;;;6.60;2.30;;;27.80;11.60;;;;;;4799134;29;20068;-92
2021/05/04 12:57:42;;;;;;;8.27;2.20;;;27.80;11.60;;;;;;4787082;29;20042;-93
2021/05/04 13:00:14;;;;;;;11.50;2.38;;;27.80;11.70;;;;;;4752601;30;20087;-90
2021/05/04 13:02:41;;;;;;;12.05;2.55;;;27.70;11.90;;;;;;4859514;24;20042;-90
2021/05/04 13:05:23;;;;;;;10.07;2.42;;;27.60;12.10;;;;;;4804290;29;20048;-93
2021/05/04 13:08:00;;;;;;;3.25;1.52;;;27.50;12.20;;;;;;4801960;29;20038;-90
2021/05/04 13:32:03;;;;;;;8.02;2.60;;;26.80;14.60;;;;;;4802820;29;20038;-93
2021/05/04 13:35:16;;;;;;;11.55;2.65;;;26.70;15.20;;;;;;4808631;29;20186;-92
2021/05/04 13:37:25;;;;;;;6.65;2.25;;;26.60;15.50;;;;;;4796661;29;20097;-94
2021/05/04 13:48:03;;;;;;;12.93;3.40;;;26.10;17.60;;;;;;4830978;24;20043;-94
2021/05/04 13:50:30;;;;;;;7.70;2.40;;;26.00;17.90;;;;;;4787372;29;20095;-96
2021/05/04 13:52:57;;;;;;;3.85;1.67;;;25.90;18.10;;;;;;4754974;30;20042;-94
2021/05/04 13:55:24;;;;;;;6.75;2.38;;;25.80;18.40;;;;;;4883041;24;20065;-96
2021/05/04 13:57:56;;;;;;;9.48;2.22;;;25.70;18.50;;;;;;4834834;24;20049;-94